createdAt,value
2023-05-14T00:01:12.949Z,21.80
2023-05-14T00:03:40.144Z,17.07
2023-05-14T00:06:07.656Z,15.53
2023-05-14T00:08:34.755Z,29.13
2023-05-14T00:11:01.834Z,19.37
2023-05-14T00:13:30.255Z,22.23
2023-05-14T00:15:57.358Z,17.97
2023-05-14T00:18:24.469Z,16.53
2023-05-14T00:20:51.528Z,23.67
2023-05-14T00:23:18.597Z,19.97
2023-05-14T00:25:45.769Z,20.30
2023-05-14T00:28:12.875Z,17.17
2023-05-14T00:30:41.288Z,19.83
2023-05-14T00:33:09.325Z,21.23
2023-05-14T00:35:36.429Z,24.30
2023-05-14T00:38:03.847Z,24.23
2023-05-14T00:40:31.041Z,23.43
2023-05-14T00:42:58.165Z,19.40
2023-05-14T00:45:25.284Z,22.53
2023-05-14T00:47:54.124Z,20.00
2023-05-14T00:50:21.699Z,18.60
2023-05-14T00:52:49.549Z,20.70
2023-05-14T00:55:17.747Z,19.07
2023-05-14T00:57:45.122Z,19.93
2023-05-14T01:00:12.638Z,20.30
2023-05-14T01:02:39.766Z,18.27
2023-05-14T01:05:08.599Z,21.07
2023-05-14T01:07:39.982Z,21.70
2023-05-14T01:10:09.780Z,19.00
2023-05-14T01:12:40.724Z,24.17
2023-05-14T01:15:11.401Z,20.00
2023-05-14T01:17:41.952Z,20.83
2023-05-14T01:20:11.187Z,25.20
2023-05-14T01:22:39.561Z,24.20
2023-05-14T01:25:07.238Z,20.70
2023-05-14T01:27:36.700Z,26.00
2023-05-14T01:30:07.894Z,22.93
2023-05-14T01:32:35.209Z,19.83
2023-05-14T01:35:02.353Z,25.43
2023-05-14T01:37:30.483Z,22.00
2023-05-14T01:40:00.333Z,19.83
2023-05-14T01:42:27.597Z,22.43
2023-05-14T01:44:54.940Z,28.97
2023-05-14T01:47:22.216Z,21.17
2023-05-14T01:49:49.517Z,20.37
2023-05-14T01:52:16.851Z,20.70
2023-05-14T01:54:43.898Z,26.20
2023-05-14T01:57:12.257Z,23.77
2023-05-14T01:59:39.510Z,20.20
2023-05-14T02:02:06.574Z,26.47
2023-05-14T02:04:33.649Z,22.47
2023-05-14T02:07:00.737Z,20.43
2023-05-14T02:09:27.763Z,24.70
2023-05-14T02:11:54.901Z,22.80
2023-05-14T02:14:23.348Z,22.23
2023-05-14T02:16:50.422Z,23.27
2023-05-14T02:19:17.856Z,24.53
2023-05-14T02:21:44.954Z,22.67
2023-05-14T02:24:12.022Z,25.80
2023-05-14T02:26:39.059Z,26.00
2023-05-14T02:29:06.171Z,24.50
2023-05-14T02:31:34.773Z,20.50
2023-05-14T02:34:01.962Z,18.40
2023-05-14T02:36:29.044Z,22.87
2023-05-14T02:38:56.096Z,26.13
2023-05-14T02:41:23.155Z,24.70
2023-05-14T02:43:50.238Z,26.40
2023-05-14T02:46:17.292Z,23.20
2023-05-14T02:48:45.739Z,23.07
2023-05-14T02:51:13.107Z,23.23
2023-05-14T02:53:40.276Z,27.70
2023-05-14T02:56:07.368Z,23.63
2023-05-14T02:58:34.533Z,21.93
2023-05-14T03:01:01.725Z,25.00
2023-05-14T03:03:29.493Z,20.40
2023-05-14T03:05:58.554Z,24.07
2023-05-14T03:08:26.701Z,21.80
2023-05-14T03:10:53.733Z,26.33
2023-05-14T03:13:20.843Z,21.93
2023-05-14T03:15:48.110Z,22.70
2023-05-14T03:18:15.479Z,23.80
2023-05-14T03:20:42.575Z,26.50
2023-05-14T03:23:11.110Z,23.57
2023-05-14T03:25:38.311Z,26.77
2023-05-14T03:28:05.518Z,23.70
2023-05-14T03:30:33.276Z,24.93
2023-05-14T03:33:00.471Z,30.57
2023-05-14T03:35:27.715Z,34.13
2023-05-14T03:37:54.765Z,29.97
2023-05-14T03:40:23.486Z,20.53
2023-05-14T03:42:51.627Z,26.20
2023-05-14T03:45:18.838Z,25.83
2023-05-14T03:47:45.969Z,21.00
2023-05-14T03:50:13.072Z,29.27
2023-05-14T03:52:40.256Z,28.00
2023-05-14T03:55:08.713Z,26.20
2023-05-14T03:57:37.963Z,21.77
2023-05-14T04:00:05.320Z,27.60
2023-05-14T04:02:44.041Z,28.83
2023-05-14T04:05:11.477Z,26.77
2023-05-14T04:07:38.699Z,26.47
2023-05-14T04:10:06.292Z,21.60
2023-05-14T04:12:35.566Z,23.53
2023-05-14T04:15:04.825Z,23.87
2023-05-14T04:17:33.897Z,25.00
2023-05-14T04:20:02.052Z,25.20
2023-05-14T04:22:29.201Z,27.83
2023-05-14T04:24:56.326Z,35.60
2023-05-14T04:27:23.648Z,23.53
2023-05-14T04:29:51.080Z,25.87
2023-05-14T04:32:19.561Z,25.50
2023-05-14T04:34:46.753Z,25.63
2023-05-14T04:37:13.796Z,24.37
2023-05-14T04:39:40.860Z,23.43
2023-05-14T04:42:08.068Z,26.67
2023-05-14T04:44:35.174Z,25.33
2023-05-14T04:47:02.379Z,29.77
2023-05-14T04:49:31.359Z,27.10
2023-05-14T04:51:58.424Z,27.90
2023-05-14T04:54:25.601Z,27.13
2023-05-14T04:56:52.680Z,30.33
2023-05-14T04:59:19.777Z,26.60
2023-05-14T05:01:46.848Z,24.57
2023-05-14T05:04:14.074Z,25.63
2023-05-14T05:06:42.464Z,27.93
2023-05-14T05:09:09.561Z,27.07
2023-05-14T05:11:36.638Z,28.10
2023-05-14T05:14:03.740Z,30.13
2023-05-14T05:16:30.913Z,24.90
2023-05-14T05:18:58.078Z,24.70
2023-05-14T05:21:25.567Z,28.43
2023-05-14T05:23:53.956Z,25.23
2023-05-14T05:26:21.009Z,26.30
2023-05-14T05:28:48.203Z,24.70
2023-05-14T05:31:16.579Z,26.33
2023-05-14T05:33:45.497Z,26.07
2023-05-14T05:36:12.562Z,25.50
2023-05-14T05:38:39.624Z,27.70
2023-05-14T05:41:08.086Z,23.93
2023-05-14T05:43:35.158Z,24.97
2023-05-14T05:46:02.260Z,27.00
2023-05-14T05:48:29.293Z,25.63
2023-05-14T05:50:56.351Z,29.47
2023-05-14T05:53:23.442Z,25.60
2023-05-14T05:55:50.498Z,26.47
2023-05-14T05:58:19.237Z,23.73
2023-05-14T06:00:46.656Z,24.07
2023-05-14T06:03:14.195Z,25.47
2023-05-14T06:05:41.432Z,24.63
2023-05-14T06:08:08.500Z,22.20
2023-05-14T06:10:35.703Z,25.40
2023-05-14T06:13:02.740Z,22.63
2023-05-14T06:15:31.156Z,22.43
2023-05-14T06:17:58.255Z,22.90
2023-05-14T06:20:25.595Z,24.90
2023-05-14T06:22:52.880Z,30.63
2023-05-14T06:25:20.064Z,25.60
2023-05-14T06:27:47.094Z,24.20
2023-05-14T06:30:14.835Z,22.80
2023-05-14T06:32:43.311Z,24.43
2023-05-14T06:35:10.788Z,25.10
2023-05-14T06:37:37.933Z,29.73
2023-05-14T06:40:05.655Z,22.13
2023-05-14T06:42:32.731Z,24.90
2023-05-14T06:44:59.903Z,28.67
2023-05-14T06:47:27.059Z,21.63
2023-05-14T06:49:55.430Z,27.80
2023-05-14T06:52:22.486Z,24.80
2023-05-14T06:54:49.525Z,25.97
2023-05-14T06:57:16.750Z,29.63
2023-05-14T06:59:43.875Z,29.73
2023-05-14T07:02:11.108Z,29.80
2023-05-14T07:04:38.189Z,29.23
2023-05-14T07:07:06.639Z,26.77
2023-05-14T07:09:33.751Z,32.73
2023-05-14T07:12:00.809Z,29.80
2023-05-14T07:14:27.841Z,33.00
2023-05-14T07:16:54.976Z,31.10
2023-05-14T07:19:22.025Z,28.83
2023-05-14T07:21:49.110Z,32.93
2023-05-14T07:24:17.632Z,32.60
2023-05-14T07:26:44.692Z,28.40
2023-05-14T07:29:11.778Z,26.53
2023-05-14T07:31:38.947Z,27.60
2023-05-14T07:34:06.103Z,32.10
2023-05-14T07:36:33.315Z,29.80
2023-05-14T07:39:00.631Z,30.93
2023-05-14T07:41:29.055Z,30.50
2023-05-14T07:43:56.083Z,27.73
2023-05-14T07:46:23.211Z,35.43
2023-05-14T07:48:50.248Z,28.37
2023-05-14T07:51:17.351Z,25.97
2023-05-14T07:53:44.387Z,25.70
2023-05-14T07:56:11.428Z,22.93
2023-05-14T07:58:39.868Z,24.03
2023-05-14T08:01:07.038Z,25.97
2023-05-14T08:03:34.236Z,22.53
2023-05-14T08:06:01.332Z,21.10
2023-05-14T08:08:28.377Z,20.57
2023-05-14T08:10:55.455Z,25.87
2023-05-14T08:13:22.566Z,27.47
2023-05-14T08:15:50.946Z,27.50
2023-05-14T08:18:17.994Z,24.80
2023-05-14T08:20:45.025Z,24.03
2023-05-14T08:23:12.146Z,19.90
2023-05-14T08:25:39.303Z,20.43
2023-05-14T08:28:06.436Z,33.63
2023-05-14T08:30:33.717Z,23.50
2023-05-14T08:33:02.179Z,23.20
2023-05-14T08:35:29.340Z,20.90
2023-05-14T08:37:56.414Z,28.03
2023-05-14T08:40:23.755Z,22.43
2023-05-14T08:42:51.743Z,22.53
2023-05-14T08:45:19.699Z,18.60
2023-05-14T08:47:47.939Z,19.37
2023-05-14T08:50:16.632Z,21.07
2023-05-14T08:52:43.933Z,19.27
2023-05-14T08:55:12.322Z,18.93
2023-05-14T08:57:39.428Z,17.20
2023-05-14T09:00:06.936Z,17.87
2023-05-14T09:02:35.225Z,17.43
2023-05-14T09:05:02.777Z,19.07
2023-05-14T09:07:31.439Z,19.13
2023-05-14T09:09:58.524Z,18.93
2023-05-14T09:12:25.865Z,20.47
2023-05-14T09:14:52.880Z,19.07
2023-05-14T09:17:20.212Z,16.17
2023-05-14T09:19:47.873Z,20.00
2023-05-14T09:22:15.496Z,18.10
2023-05-14T09:24:43.890Z,18.73
2023-05-14T09:27:15.933Z,19.50
2023-05-14T09:29:43.013Z,17.30
2023-05-14T09:32:10.139Z,15.73
2023-05-14T09:34:37.227Z,16.07
2023-05-14T09:37:05.343Z,15.43
2023-05-14T09:39:33.271Z,13.33
2023-05-14T09:42:01.660Z,11.20
2023-05-14T09:44:28.722Z,9.07
2023-05-14T09:46:56.455Z,10.23
2023-05-14T09:49:23.739Z,16.20
2023-05-14T09:51:51.124Z,8.20
2023-05-14T09:54:18.325Z,9.20
2023-05-14T09:56:45.534Z,15.87
2023-05-14T09:59:13.958Z,9.70
2023-05-14T10:01:43.132Z,13.57
2023-05-14T10:04:10.532Z,13.80
2023-05-14T10:06:38.802Z,7.07
2023-05-14T10:09:10.006Z,7.80
2023-05-14T10:11:38.340Z,5.20
2023-05-14T10:14:08.109Z,9.60
2023-05-14T10:16:38.403Z,7.13
2023-05-14T10:19:06.932Z,5.13
2023-05-14T10:21:35.724Z,6.10
2023-05-14T10:24:03.216Z,6.57
2023-05-14T10:26:30.620Z,5.60
2023-05-14T10:28:58.137Z,3.93
2023-05-14T10:31:45.356Z,6.03
2023-05-14T10:34:27.421Z,4.17
2023-05-14T10:36:59.312Z,5.40
2023-05-14T10:39:40.285Z,5.53
2023-05-14T10:42:07.479Z,6.73
2023-05-14T10:44:35.751Z,3.27
2023-05-14T10:47:02.955Z,7.03
2023-05-14T10:49:42.981Z,3.70
2023-05-14T10:52:12.841Z,5.57
2023-05-14T10:54:39.951Z,3.83
2023-05-14T10:57:11.696Z,4.10
2023-05-14T10:59:42.122Z,9.33
2023-05-14T11:02:19.204Z,7.43
2023-05-14T11:04:51.173Z,5.30
2023-05-14T11:07:24.147Z,4.93
2023-05-14T11:09:51.814Z,6.33
2023-05-14T11:12:18.938Z,4.30
2023-05-14T11:14:47.307Z,8.67
2023-05-14T11:17:15.516Z,4.70
2023-05-14T11:19:43.778Z,3.77
2023-05-14T11:22:10.894Z,3.57
2023-05-14T11:24:39.304Z,3.67
2023-05-14T11:27:07.860Z,4.40
2023-05-14T11:29:35.044Z,4.00
2023-05-14T11:32:02.418Z,3.00
2023-05-14T11:34:29.519Z,2.90
2023-05-14T11:36:56.619Z,5.15
2023-05-14T11:39:23.698Z,3.58
2023-05-14T11:41:52.200Z,5.60
2023-05-14T11:44:19.291Z,3.35
2023-05-14T11:46:54.670Z,6.35
2023-05-14T11:49:22.099Z,3.25
2023-05-14T11:51:49.141Z,3.85
2023-05-14T11:54:16.235Z,3.35
2023-05-14T11:56:43.317Z,3.25
2023-05-14T11:59:12.731Z,2.58
2023-05-14T12:01:39.934Z,6.30
2023-05-14T12:04:07.072Z,4.45
2023-05-14T12:06:34.090Z,2.67
2023-05-14T12:09:01.128Z,3.13
2023-05-14T12:11:31.118Z,3.72
2023-05-14T12:13:58.253Z,3.83
2023-05-14T12:16:30.496Z,3.10
2023-05-14T12:19:00.014Z,3.88
2023-05-14T12:21:27.748Z,3.10
2023-05-14T12:23:57.466Z,5.57
2023-05-14T12:26:26.312Z,4.13
2023-05-14T12:28:57.737Z,2.45
2023-05-14T12:31:29.821Z,4.78
2023-05-14T12:33:56.926Z,2.45
2023-05-14T12:36:24.201Z,4.40
2023-05-14T12:38:51.467Z,2.72
2023-05-14T12:41:18.787Z,4.68
2023-05-14T12:43:48.219Z,2.70
2023-05-14T12:46:15.436Z,3.05
2023-05-14T12:48:43.826Z,4.47
2023-05-14T12:51:10.872Z,3.97
2023-05-14T12:53:37.888Z,3.53
2023-05-14T12:56:05.115Z,3.45
2023-05-14T12:58:32.184Z,3.83
2023-05-14T13:00:59.307Z,4.53
2023-05-14T13:03:26.470Z,3.92
2023-05-14T13:05:55.110Z,2.90
2023-05-14T13:08:22.679Z,2.83
2023-05-14T13:10:49.768Z,4.53
2023-05-14T13:13:16.999Z,3.05
2023-05-14T13:15:44.145Z,5.72
2023-05-14T13:18:11.191Z,3.95
2023-05-14T13:20:38.259Z,2.55
2023-05-14T13:23:06.751Z,2.95
2023-05-14T13:25:33.934Z,3.08
2023-05-14T13:28:01.060Z,3.00
2023-05-14T13:30:28.196Z,2.60
2023-05-14T13:32:55.373Z,3.95
2023-05-14T13:35:22.662Z,2.92
2023-05-14T13:37:49.858Z,2.65
2023-05-14T13:40:18.295Z,2.95
2023-05-14T13:42:45.429Z,2.90
2023-05-14T13:45:13.115Z,3.97
2023-05-14T13:47:40.471Z,7.00
2023-05-14T13:50:08.175Z,4.80
2023-05-14T13:52:35.200Z,2.67
2023-05-14T13:55:02.243Z,2.75
2023-05-14T13:57:30.654Z,3.47
2023-05-14T13:59:57.700Z,2.97
2023-05-14T14:02:24.841Z,3.55
2023-05-14T14:04:52.084Z,3.00
2023-05-14T14:07:19.174Z,3.33
2023-05-14T14:09:46.223Z,3.00
2023-05-14T14:12:13.323Z,5.40
2023-05-14T14:14:41.836Z,4.63
2023-05-14T14:17:08.915Z,3.30
2023-05-14T14:19:36.008Z,3.15
2023-05-14T14:22:03.148Z,3.00
2023-05-14T14:24:30.221Z,5.53
2023-05-14T14:26:57.290Z,5.05
2023-05-14T14:29:24.337Z,2.92
2023-05-14T14:31:52.729Z,4.28
2023-05-14T14:34:19.881Z,4.40
2023-05-14T14:36:46.919Z,4.25
2023-05-14T14:39:13.966Z,7.28
2023-05-14T14:41:41.006Z,3.30
2023-05-14T14:44:08.082Z,3.85
2023-05-14T14:46:35.295Z,2.88
2023-05-14T14:49:03.790Z,3.78
2023-05-14T14:51:30.827Z,4.25
2023-05-14T14:53:57.861Z,4.13
2023-05-14T14:56:24.918Z,3.10
2023-05-14T14:58:52.007Z,3.58
2023-05-14T15:01:19.083Z,3.45
2023-05-14T15:03:46.236Z,3.75
2023-05-14T15:06:14.713Z,2.95
2023-05-14T15:08:41.863Z,3.03
2023-05-14T15:11:09.071Z,5.47
2023-05-14T15:13:36.137Z,2.92
2023-05-14T15:16:03.209Z,2.67
2023-05-14T15:18:30.326Z,2.90
2023-05-14T15:20:57.465Z,2.58
2023-05-14T15:23:25.863Z,3.38
2023-05-14T15:25:52.976Z,3.58
2023-05-14T15:28:20.031Z,4.32
2023-05-14T15:30:48.134Z,2.65
2023-05-14T15:33:15.182Z,2.55
2023-05-14T15:35:42.203Z,2.45
2023-05-14T15:38:09.244Z,4.00
2023-05-14T15:40:37.615Z,3.05
2023-05-14T15:43:04.993Z,3.33
2023-05-14T15:45:32.158Z,2.92
2023-05-14T15:47:59.265Z,2.70
2023-05-14T15:50:27.088Z,2.70
2023-05-14T15:52:54.267Z,3.83
2023-05-14T15:55:21.556Z,2.55
2023-05-14T15:57:49.997Z,2.90
2023-05-14T16:00:17.503Z,3.03
2023-05-14T16:02:44.819Z,2.78
2023-05-14T16:05:11.993Z,3.70
2023-05-14T16:07:39.111Z,2.63
2023-05-14T16:10:06.807Z,2.58
2023-05-14T16:12:33.865Z,4.00
2023-05-14T16:15:02.282Z,3.38
2023-05-14T16:17:29.503Z,3.97
2023-05-14T16:19:56.753Z,4.90
2023-05-14T16:22:23.874Z,3.30
2023-05-14T16:24:50.969Z,3.23
2023-05-14T16:27:18.044Z,3.93
2023-05-14T16:29:45.491Z,3.40
2023-05-14T16:32:14.062Z,2.80
2023-05-14T16:34:41.161Z,3.73
2023-05-14T16:37:08.719Z,3.53
2023-05-14T16:39:36.762Z,7.73
2023-05-14T16:42:03.999Z,3.50
2023-05-14T16:44:31.073Z,2.50
2023-05-14T16:46:58.157Z,2.83
2023-05-14T16:49:26.563Z,6.63
2023-05-14T16:51:53.841Z,2.50
2023-05-14T16:54:21.067Z,3.90
2023-05-14T16:56:48.601Z,3.20
2023-05-14T16:59:16.190Z,2.83
2023-05-14T17:01:43.801Z,2.60
2023-05-14T17:04:11.011Z,3.13
2023-05-14T17:06:39.482Z,5.10
2023-05-14T17:09:06.584Z,3.60
2023-05-14T17:11:33.733Z,3.50
2023-05-14T17:14:00.817Z,3.03
2023-05-14T17:16:27.906Z,5.97
2023-05-14T17:18:54.887Z,3.53
2023-05-14T17:21:21.914Z,4.30
2023-05-14T17:23:50.371Z,4.03
2023-05-14T17:26:17.437Z,2.50
2023-05-14T17:28:44.578Z,2.50
2023-05-14T17:31:11.644Z,2.80
2023-05-14T17:33:38.856Z,3.17
2023-05-14T17:36:06.193Z,4.63
2023-05-14T17:38:33.251Z,3.10
2023-05-14T17:41:02.162Z,4.80
2023-05-14T17:43:29.263Z,3.80
2023-05-14T17:45:56.322Z,3.43
2023-05-14T17:48:23.374Z,4.13
2023-05-14T17:50:50.444Z,4.07
2023-05-14T17:53:17.513Z,6.77
2023-05-14T17:55:44.691Z,4.97
2023-05-14T17:58:13.658Z,4.77
2023-05-14T18:00:41.087Z,4.00
2023-05-14T18:03:08.424Z,5.63
2023-05-14T18:05:35.561Z,5.00
2023-05-14T18:08:02.691Z,12.40
2023-05-14T18:10:29.870Z,5.83
2023-05-14T18:12:56.965Z,5.13
2023-05-14T18:15:25.667Z,5.60
2023-05-14T18:17:53.156Z,6.47
2023-05-14T18:20:20.512Z,3.70
2023-05-14T18:22:47.628Z,5.30
2023-05-14T18:25:14.786Z,5.90
2023-05-14T18:27:41.876Z,4.70
2023-05-14T18:30:09.858Z,4.23
2023-05-14T18:32:38.272Z,3.97
2023-05-14T18:35:07.898Z,3.93
2023-05-14T18:37:35.661Z,3.00
2023-05-14T18:40:02.852Z,4.17
2023-05-14T18:42:29.946Z,4.13
2023-05-14T18:44:57.212Z,3.70
2023-05-14T18:47:24.389Z,4.93
2023-05-14T18:49:52.798Z,5.43
2023-05-14T18:52:19.835Z,7.70
2023-05-14T18:54:46.872Z,6.43
2023-05-14T18:57:13.945Z,8.20
2023-05-14T18:59:41.010Z,8.60
2023-05-14T19:02:08.062Z,6.63
2023-05-14T19:04:47.873Z,8.77
2023-05-14T19:07:19.998Z,12.20
2023-05-14T19:09:47.062Z,11.47
2023-05-14T19:12:14.489Z,7.80
2023-05-14T19:14:41.546Z,8.77
2023-05-14T19:17:08.586Z,10.23
2023-05-14T19:19:35.684Z,7.00
2023-05-14T19:22:02.704Z,7.30
2023-05-14T19:24:32.905Z,13.00
2023-05-14T19:26:59.966Z,19.57
2023-05-14T19:29:27.059Z,14.77
2023-05-14T19:31:54.138Z,14.87
2023-05-14T19:34:21.237Z,14.77
2023-05-14T19:36:48.298Z,16.40
2023-05-14T19:39:15.511Z,17.57
2023-05-14T19:41:44.221Z,12.60
2023-05-14T19:44:11.311Z,13.40
2023-05-14T19:46:38.491Z,14.00
2023-05-14T19:49:05.578Z,12.80
2023-05-14T19:51:32.739Z,11.20
2023-05-14T19:53:59.819Z,13.50
2023-05-14T19:56:27.421Z,19.40
2023-05-14T19:58:56.025Z,11.20
2023-05-14T20:01:23.159Z,12.47
2023-05-14T20:03:50.260Z,16.77
2023-05-14T20:06:17.296Z,13.80
2023-05-14T20:08:44.412Z,14.70
2023-05-14T20:11:11.657Z,12.30
2023-05-14T20:13:38.713Z,16.23
2023-05-14T20:16:07.301Z,12.13
2023-05-14T20:18:34.558Z,11.40
2023-05-14T20:21:01.628Z,10.00
2023-05-14T20:23:28.652Z,11.63
2023-05-14T20:25:55.736Z,10.47
2023-05-14T20:28:22.853Z,12.13
2023-05-14T20:30:49.963Z,10.53
2023-05-14T20:33:18.375Z,12.63
2023-05-14T20:35:45.472Z,12.83
2023-05-14T20:38:12.579Z,10.60
2023-05-14T20:40:39.736Z,10.03
2023-05-14T20:43:06.780Z,10.33
2023-05-14T20:45:33.925Z,14.43
2023-05-14T20:48:01.121Z,12.03
2023-05-14T20:50:29.603Z,13.90
2023-05-14T20:52:56.668Z,10.43
2023-05-14T20:55:24.072Z,11.77
2023-05-14T20:57:51.299Z,12.13
2023-05-14T21:00:18.697Z,13.73
2023-05-14T21:02:45.889Z,12.40
2023-05-14T21:05:13.039Z,12.10
2023-05-14T21:07:41.467Z,13.50
2023-05-14T21:10:08.922Z,10.73
2023-05-14T21:12:35.981Z,12.13
2023-05-14T21:15:03.023Z,10.90
2023-05-14T21:17:30.083Z,11.70
2023-05-14T21:19:57.223Z,9.03
2023-05-14T21:22:24.424Z,10.00
2023-05-14T21:24:55.200Z,10.00
2023-05-14T21:27:22.677Z,9.80
2023-05-14T21:29:49.764Z,10.17
2023-05-14T21:32:16.836Z,10.40
2023-05-14T21:34:43.909Z,9.97
2023-05-14T21:37:10.966Z,10.73
2023-05-14T21:39:38.063Z,11.20
2023-05-14T21:42:06.885Z,12.30
2023-05-14T21:44:33.945Z,14.10
2023-05-14T21:47:00.954Z,10.30
2023-05-14T21:49:27.973Z,12.27
2023-05-14T21:51:55.061Z,10.73
2023-05-14T21:54:22.237Z,14.13
2023-05-14T21:56:49.308Z,12.90
2023-05-14T21:59:17.713Z,12.07
2023-05-14T22:04:14.774Z,11.30
2023-05-14T22:06:41.867Z,8.87
2023-05-14T22:09:10.940Z,9.83
2023-05-14T22:11:38.034Z,9.47
2023-05-14T22:14:05.113Z,11.07
2023-05-14T22:16:33.770Z,10.70
2023-05-14T22:19:01.670Z,11.87
2023-05-14T22:21:28.795Z,11.60
2023-05-14T22:23:55.817Z,9.47
2023-05-14T22:26:22.831Z,9.60
2023-05-14T22:28:49.876Z,11.73
2023-05-14T22:31:16.994Z,10.17
2023-05-14T22:33:45.495Z,12.23
2023-05-14T22:36:12.593Z,12.47
2023-05-14T22:38:39.691Z,11.53
2023-05-14T22:41:06.728Z,12.50
2023-05-14T22:43:33.712Z,13.13
2023-05-14T22:46:00.797Z,14.53
2023-05-14T22:48:27.924Z,12.17
2023-05-14T22:50:56.281Z,12.57
2023-05-14T22:53:24.431Z,12.03
2023-05-14T22:55:52.394Z,10.93
2023-05-14T22:58:19.501Z,18.00
2023-05-14T23:00:46.590Z,12.20
2023-05-14T23:03:13.680Z,12.73
2023-05-14T23:05:40.767Z,13.90
2023-05-14T23:08:09.160Z,15.47
2023-05-14T23:10:36.268Z,12.37
2023-05-14T23:13:04.329Z,11.73
2023-05-14T23:15:31.550Z,11.47
2023-05-14T23:17:58.782Z,11.70
2023-05-14T23:20:25.911Z,14.07
2023-05-14T23:22:52.922Z,15.20
2023-05-14T23:25:21.374Z,17.17
2023-05-14T23:27:48.463Z,11.40
2023-05-14T23:30:15.575Z,13.13
2023-05-14T23:32:42.715Z,14.03
2023-05-14T23:35:09.941Z,13.07
2023-05-14T23:37:37.037Z,15.03
2023-05-14T23:40:04.498Z,15.80
2023-05-14T23:42:32.869Z,12.50
2023-05-14T23:44:59.875Z,15.00
2023-05-14T23:47:26.931Z,18.43
2023-05-14T23:49:53.994Z,12.20
2023-05-14T23:52:21.074Z,12.63
2023-05-14T23:54:48.133Z,14.33
2023-05-14T23:57:15.166Z,24.77
2023-05-14T23:59:43.485Z,15.20
